RYR5BC LIBD-LICJ
Flight info
| Callsign | RYR5BC |
|---|---|
| Flight time | 0h 51m |
| Altitude | 31000 |
| Route | TOPNO DCT BUMOK DCT KUTID DCT AMANO/N0340F190 M742 ROSAS |
| Aircraft | B738/M-SDE2E3FGHIRWXY/LB1 |
Departure
| Time | 2026-05-04 12:12 |
|---|---|
| Airport | Bari Karol Wojtyła International Airport (LIBD) |
Arrival
| Time | 2026-05-04 13:04 |
|---|---|
| Airport | Falcone–Borsellino Airport (LICJ) |
| Time | Latitude | Longitude | Altitude | Speed | Heading |
|---|---|---|---|---|---|
| 2026-05-04 11:57 | 41.13539 | 16.76402 | 135 ft | 0 kts | 159° |
| 2026-05-04 12:04 | 41.13549 | 16.76397 | 135 ft | 4 kts | 161° |
| 2026-05-04 12:04 | 41.13575 | 16.76388 | 135 ft | 4 kts | 172° |
| 2026-05-04 12:05 | 41.13602 | 16.76387 | 135 ft | 4 kts | 195° |
| 2026-05-04 12:05 | 41.13620 | 16.76402 | 135 ft | 2 kts | 248° |
| 2026-05-04 12:05 | 41.13620 | 16.76404 | 135 ft | 0 kts | 249° |
| 2026-05-04 12:07 | 41.13616 | 16.76390 | 135 ft | 3 kts | 249° |
| 2026-05-04 12:07 | 41.13603 | 16.76345 | 135 ft | 7 kts | 249° |
| 2026-05-04 12:08 | 41.13582 | 16.76270 | 135 ft | 10 kts | 249° |
| 2026-05-04 12:08 | 41.13553 | 16.76168 | 135 ft | 13 kts | 254° |
| 2026-05-04 12:08 | 41.13602 | 16.76060 | 135 ft | 16 kts | 322° |
| 2026-05-04 12:08 | 41.13626 | 16.75924 | 135 ft | 18 kts | 254° |
| 2026-05-04 12:09 | 41.13582 | 16.75769 | 137 ft | 19 kts | 249° |
| 2026-05-04 12:09 | 41.13533 | 16.75595 | 137 ft | 21 kts | 249° |
| 2026-05-04 12:09 | 41.13482 | 16.75414 | 141 ft | 21 kts | 249° |
| 2026-05-04 12:09 | 41.13431 | 16.75238 | 142 ft | 20 kts | 249° |
| 2026-05-04 12:10 | 41.13383 | 16.75069 | 148 ft | 19 kts | 250° |
| 2026-05-04 12:10 | 41.13336 | 16.74900 | 147 ft | 19 kts | 250° |
| 2026-05-04 12:10 | 41.13289 | 16.74738 | 148 ft | 19 kts | 249° |
| 2026-05-04 12:10 | 41.13241 | 16.74573 | 151 ft | 21 kts | 248° |
| 2026-05-04 12:11 | 41.13189 | 16.74391 | 153 ft | 21 kts | 250° |
| 2026-05-04 12:11 | 41.13179 | 16.74212 | 149 ft | 21 kts | 296° |
| 2026-05-04 12:11 | 41.13285 | 16.74105 | 145 ft | 19 kts | 12° |
| 2026-05-04 12:11 | 41.13326 | 16.74193 | 146 ft | 9 kts | 69° |
| 2026-05-04 12:12 | 41.13389 | 16.74411 | 145 ft | 58 kts | 69° |
| 2026-05-04 12:12 | 41.13616 | 16.75216 | 138 ft | 126 kts | 69° |
| 2026-05-04 12:12 | 41.13970 | 16.76474 | 464 ft | 151 kts | 69° |
| 2026-05-04 12:12 | 41.14341 | 16.77767 | 1298 ft | 156 kts | 69° |
| 2026-05-04 12:13 | 41.14743 | 16.79181 | 1993 ft | 168 kts | 69° |
| 2026-05-04 12:14 | 41.18742 | 16.93650 | 5786 ft | 263 kts | 78° |
| 2026-05-04 12:15 | 41.18833 | 16.96059 | 6686 ft | 261 kts | 89° |
| 2026-05-04 12:15 | 41.18771 | 16.98462 | 7397 ft | 266 kts | 91° |
| 2026-05-04 12:15 | 41.18391 | 17.00922 | 7913 ft | 282 kts | 115° |
| 2026-05-04 12:15 | 41.17077 | 17.02859 | 8556 ft | 290 kts | 148° |
| 2026-05-04 12:16 | 41.15150 | 17.03592 | 9304 ft | 294 kts | 180° |
| 2026-05-04 12:16 | 41.13167 | 17.03000 | 10048 ft | 296 kts | 205° |
| 2026-05-04 12:16 | 41.11422 | 17.01490 | 10522 ft | 307 kts | 223° |
| 2026-05-04 12:16 | 41.09980 | 16.99274 | 10700 ft | 328 kts | 235° |
| 2026-05-04 12:17 | 41.08671 | 16.96684 | 10977 ft | 347 kts | 239° |
| 2026-05-04 12:17 | 41.07373 | 16.93931 | 11475 ft | 357 kts | 239° |
| 2026-05-04 12:17 | 41.06072 | 16.91160 | 12180 ft | 359 kts | 239° |
| 2026-05-04 12:17 | 41.04732 | 16.88356 | 12908 ft | 363 kts | 239° |
| 2026-05-04 12:18 | 41.03359 | 16.85526 | 13599 ft | 368 kts | 238° |
| 2026-05-04 12:18 | 41.01953 | 16.82670 | 14295 ft | 371 kts | 238° |
| 2026-05-04 12:18 | 41.00532 | 16.79809 | 15031 ft | 373 kts | 238° |
| 2026-05-04 12:18 | 40.99096 | 16.76935 | 15750 ft | 376 kts | 238° |
| 2026-05-04 12:19 | 40.97644 | 16.74041 | 16454 ft | 378 kts | 238° |
| 2026-05-04 12:19 | 40.96202 | 16.71175 | 17147 ft | 381 kts | 238° |
| 2026-05-04 12:19 | 40.94729 | 16.68253 | 17839 ft | 384 kts | 238° |
| 2026-05-04 12:19 | 40.93240 | 16.65304 | 18519 ft | 387 kts | 238° |
| 2026-05-04 12:20 | 40.91738 | 16.62329 | 19101 ft | 390 kts | 238° |
| 2026-05-04 12:20 | 40.90228 | 16.59343 | 19689 ft | 392 kts | 238° |
| 2026-05-04 12:20 | 40.88704 | 16.56333 | 20280 ft | 395 kts | 238° |
| 2026-05-04 12:20 | 40.87171 | 16.53308 | 20851 ft | 398 kts | 238° |
| 2026-05-04 12:21 | 40.85628 | 16.50266 | 21410 ft | 400 kts | 238° |
| 2026-05-04 12:21 | 40.84070 | 16.47198 | 21966 ft | 403 kts | 238° |
| 2026-05-04 12:21 | 40.82503 | 16.44114 | 22496 ft | 406 kts | 239° |
| 2026-05-04 12:21 | 40.80948 | 16.41057 | 23006 ft | 409 kts | 239° |
| 2026-05-04 12:22 | 40.79357 | 16.37933 | 23543 ft | 411 kts | 239° |
| 2026-05-04 12:22 | 40.77758 | 16.34791 | 23982 ft | 414 kts | 239° |
| 2026-05-04 12:22 | 40.76146 | 16.31631 | 24436 ft | 416 kts | 239° |
| 2026-05-04 12:22 | 40.74527 | 16.28463 | 24874 ft | 418 kts | 239° |
| 2026-05-04 12:23 | 40.72898 | 16.25280 | 25301 ft | 419 kts | 239° |
| 2026-05-04 12:23 | 40.71262 | 16.22087 | 25732 ft | 421 kts | 239° |
| 2026-05-04 12:23 | 40.69616 | 16.18876 | 26139 ft | 423 kts | 239° |
| 2026-05-04 12:23 | 40.67989 | 16.15704 | 26532 ft | 425 kts | 239° |
| 2026-05-04 12:24 | 40.66327 | 16.12465 | 26909 ft | 428 kts | 239° |
| 2026-05-04 12:24 | 40.64659 | 16.09222 | 27350 ft | 428 kts | 239° |
| 2026-05-04 12:24 | 40.62995 | 16.05988 | 27950 ft | 424 kts | 239° |
| 2026-05-04 12:24 | 40.61343 | 16.02784 | 28470 ft | 422 kts | 239° |
| 2026-05-04 12:25 | 40.59694 | 15.99589 | 28937 ft | 423 kts | 239° |
| 2026-05-04 12:25 | 40.58044 | 15.96391 | 29405 ft | 423 kts | 239° |
| 2026-05-04 12:25 | 40.56390 | 15.93189 | 29898 ft | 422 kts | 239° |
| 2026-05-04 12:25 | 40.54773 | 15.90045 | 30347 ft | 421 kts | 240° |
| 2026-05-04 12:26 | 40.53202 | 15.86801 | 30728 ft | 420 kts | 241° |
| 2026-05-04 12:26 | 40.51656 | 15.83547 | 31103 ft | 420 kts | 241° |
| 2026-05-04 12:26 | 40.48449 | 15.76993 | 31141 ft | 434 kts | 240° |
| 2026-05-04 12:27 | 40.45034 | 15.70316 | 31177 ft | 446 kts | 239° |
| 2026-05-04 12:27 | 40.41521 | 15.63596 | 31148 ft | 450 kts | 239° |
| 2026-05-04 12:28 | 40.37950 | 15.56812 | 31155 ft | 448 kts | 239° |
| 2026-05-04 12:28 | 40.34415 | 15.50106 | 31158 ft | 446 kts | 239° |
| 2026-05-04 12:29 | 40.30915 | 15.43471 | 31172 ft | 445 kts | 239° |
| 2026-05-04 12:29 | 40.27402 | 15.36821 | 31160 ft | 443 kts | 239° |
| 2026-05-04 12:30 | 40.23898 | 15.30204 | 31171 ft | 442 kts | 239° |
| 2026-05-04 12:30 | 40.20396 | 15.23602 | 31169 ft | 441 kts | 240° |
| 2026-05-04 12:31 | 40.16918 | 15.17061 | 31168 ft | 440 kts | 240° |
| 2026-05-04 12:31 | 40.13423 | 15.10502 | 31166 ft | 439 kts | 240° |
| 2026-05-04 12:32 | 40.08194 | 15.00712 | 31165 ft | 437 kts | 240° |
| 2026-05-04 12:33 | 40.04710 | 14.94207 | 31167 ft | 437 kts | 240° |
| 2026-05-04 12:33 | 40.01252 | 14.87765 | 31170 ft | 436 kts | 240° |
| 2026-05-04 12:34 | 39.97770 | 14.81289 | 31169 ft | 436 kts | 240° |
| 2026-05-04 12:34 | 39.94291 | 14.74833 | 31171 ft | 435 kts | 240° |
| 2026-05-04 12:35 | 39.90810 | 14.68387 | 31162 ft | 435 kts | 240° |
| 2026-05-04 12:35 | 39.87357 | 14.62004 | 31168 ft | 434 kts | 240° |
| 2026-05-04 12:36 | 39.83874 | 14.55582 | 31168 ft | 434 kts | 240° |
| 2026-05-04 12:36 | 39.80389 | 14.49166 | 31168 ft | 434 kts | 240° |
| 2026-05-04 12:37 | 39.76903 | 14.42763 | 31169 ft | 433 kts | 240° |
| 2026-05-04 12:37 | 39.73422 | 14.36381 | 31161 ft | 433 kts | 240° |
| 2026-05-04 12:38 | 39.69937 | 14.30005 | 31165 ft | 433 kts | 241° |
| 2026-05-04 12:38 | 39.66470 | 14.23675 | 31165 ft | 433 kts | 241° |
| 2026-05-04 12:39 | 39.62975 | 14.17305 | 31163 ft | 433 kts | 241° |
| 2026-05-04 12:39 | 39.59476 | 14.10942 | 31165 ft | 433 kts | 241° |
| 2026-05-04 12:40 | 39.55974 | 14.04584 | 31165 ft | 434 kts | 241° |
| 2026-05-04 12:40 | 39.52462 | 13.98222 | 31164 ft | 434 kts | 241° |
| 2026-05-04 12:40 | 39.50726 | 13.95081 | 30975 ft | 437 kts | 241° |
| 2026-05-04 12:41 | 39.48957 | 13.91881 | 30619 ft | 437 kts | 241° |
| 2026-05-04 12:41 | 39.47185 | 13.88681 | 30167 ft | 438 kts | 240° |
| 2026-05-04 12:41 | 39.45410 | 13.85485 | 29646 ft | 432 kts | 240° |
| 2026-05-04 12:41 | 39.43541 | 13.82482 | 29176 ft | 430 kts | 232° |
| 2026-05-04 12:42 | 39.41232 | 13.79983 | 28737 ft | 440 kts | 221° |
| 2026-05-04 12:42 | 39.38550 | 13.77961 | 28271 ft | 453 kts | 211° |
| 2026-05-04 12:42 | 39.35562 | 13.76498 | 27810 ft | 462 kts | 204° |
| 2026-05-04 12:42 | 39.32553 | 13.75198 | 27329 ft | 462 kts | 204° |
| 2026-05-04 12:43 | 39.29513 | 13.73880 | 26857 ft | 460 kts | 204° |
| 2026-05-04 12:43 | 39.26492 | 13.72550 | 26388 ft | 459 kts | 204° |
| 2026-05-04 12:43 | 39.23476 | 13.71203 | 25924 ft | 457 kts | 204° |
| 2026-05-04 12:43 | 39.20479 | 13.69851 | 25467 ft | 456 kts | 204° |
| 2026-05-04 12:44 | 39.17483 | 13.68494 | 25009 ft | 456 kts | 204° |
| 2026-05-04 12:44 | 39.14485 | 13.67135 | 24542 ft | 456 kts | 204° |
| 2026-05-04 12:44 | 39.11492 | 13.65778 | 24080 ft | 457 kts | 203° |
| 2026-05-04 12:44 | 39.08489 | 13.64420 | 23582 ft | 458 kts | 203° |
| 2026-05-04 12:45 | 39.05475 | 13.63060 | 23035 ft | 459 kts | 203° |
| 2026-05-04 12:45 | 39.02497 | 13.61717 | 22524 ft | 460 kts | 203° |
| 2026-05-04 12:45 | 38.99481 | 13.60360 | 22024 ft | 458 kts | 203° |
| 2026-05-04 12:45 | 38.96510 | 13.59026 | 21552 ft | 446 kts | 203° |
| 2026-05-04 12:46 | 38.93621 | 13.57729 | 21086 ft | 435 kts | 203° |
| 2026-05-04 12:46 | 38.90793 | 13.56459 | 20630 ft | 425 kts | 203° |
| 2026-05-04 12:46 | 38.88047 | 13.55174 | 20190 ft | 415 kts | 207° |
| 2026-05-04 12:46 | 38.85589 | 13.53362 | 19744 ft | 401 kts | 221° |
| 2026-05-04 12:47 | 38.83611 | 13.50930 | 19227 ft | 391 kts | 233° |
| 2026-05-04 12:47 | 38.82067 | 13.48111 | 18794 ft | 383 kts | 241° |
| 2026-05-04 12:47 | 38.80685 | 13.45270 | 18346 ft | 380 kts | 241° |
| 2026-05-04 12:47 | 38.79274 | 13.42420 | 17881 ft | 377 kts | 240° |
| 2026-05-04 12:48 | 38.77863 | 13.39600 | 17439 ft | 374 kts | 240° |
| 2026-05-04 12:48 | 38.76458 | 13.36815 | 17022 ft | 371 kts | 239° |
| 2026-05-04 12:48 | 38.75060 | 13.34052 | 16611 ft | 368 kts | 239° |
| 2026-05-04 12:48 | 38.73673 | 13.31318 | 16212 ft | 365 kts | 239° |
| 2026-05-04 12:49 | 38.72295 | 13.28603 | 15801 ft | 363 kts | 239° |
| 2026-05-04 12:49 | 38.70922 | 13.25900 | 15406 ft | 361 kts | 239° |
| 2026-05-04 12:49 | 38.69556 | 13.23213 | 15009 ft | 359 kts | 239° |
| 2026-05-04 12:49 | 38.68194 | 13.20536 | 14615 ft | 358 kts | 239° |
| 2026-05-04 12:50 | 38.66859 | 13.17914 | 14229 ft | 357 kts | 238° |
| 2026-05-04 12:50 | 38.65503 | 13.15254 | 13816 ft | 356 kts | 238° |
| 2026-05-04 12:50 | 38.64155 | 13.12611 | 13374 ft | 354 kts | 238° |
| 2026-05-04 12:50 | 38.62810 | 13.09975 | 12955 ft | 353 kts | 238° |
| 2026-05-04 12:51 | 38.61471 | 13.07355 | 12551 ft | 351 kts | 238° |
| 2026-05-04 12:51 | 38.60143 | 13.04758 | 12150 ft | 346 kts | 238° |
| 2026-05-04 12:51 | 38.58838 | 13.02208 | 11754 ft | 340 kts | 238° |
| 2026-05-04 12:51 | 38.57552 | 12.99699 | 11376 ft | 335 kts | 238° |
| 2026-05-04 12:52 | 38.56284 | 12.97225 | 11001 ft | 330 kts | 238° |
| 2026-05-04 12:52 | 38.55051 | 12.94819 | 10626 ft | 326 kts | 238° |
| 2026-05-04 12:52 | 38.53820 | 12.92422 | 10433 ft | 317 kts | 238° |
| 2026-05-04 12:52 | 38.52632 | 12.90108 | 10272 ft | 307 kts | 237° |
| 2026-05-04 12:53 | 38.51477 | 12.87861 | 10126 ft | 298 kts | 237° |
| 2026-05-04 12:53 | 38.50348 | 12.85664 | 9799 ft | 295 kts | 237° |
| 2026-05-04 12:53 | 38.49230 | 12.83492 | 9483 ft | 291 kts | 237° |
| 2026-05-04 12:53 | 38.48123 | 12.81339 | 9170 ft | 288 kts | 237° |
| 2026-05-04 12:54 | 38.47027 | 12.79212 | 8865 ft | 285 kts | 237° |
| 2026-05-04 12:54 | 38.45954 | 12.77133 | 8569 ft | 283 kts | 237° |
| 2026-05-04 12:54 | 38.44871 | 12.75047 | 8318 ft | 280 kts | 236° |
| 2026-05-04 12:54 | 38.43503 | 12.73326 | 8169 ft | 279 kts | 211° |
| 2026-05-04 12:55 | 38.41653 | 12.72633 | 7972 ft | 283 kts | 184° |
| 2026-05-04 12:55 | 38.39692 | 12.72979 | 7703 ft | 288 kts | 163° |
| 2026-05-04 12:55 | 38.37869 | 12.74009 | 7428 ft | 286 kts | 155° |
| 2026-05-04 12:55 | 38.36095 | 12.75136 | 7132 ft | 283 kts | 156° |
| 2026-05-04 12:56 | 38.34327 | 12.76206 | 6852 ft | 281 kts | 156° |
| 2026-05-04 12:56 | 38.32586 | 12.77239 | 6559 ft | 279 kts | 156° |
| 2026-05-04 12:56 | 38.30840 | 12.78272 | 6255 ft | 274 kts | 156° |
| 2026-05-04 12:56 | 38.29134 | 12.79281 | 5953 ft | 267 kts | 157° |
| 2026-05-04 12:57 | 38.27475 | 12.80262 | 5675 ft | 260 kts | 157° |
| 2026-05-04 12:57 | 38.25854 | 12.81219 | 5377 ft | 255 kts | 156° |
| 2026-05-04 12:57 | 38.24242 | 12.82162 | 5047 ft | 253 kts | 158° |
| 2026-05-04 12:57 | 38.22634 | 12.83041 | 4685 ft | 250 kts | 158° |
| 2026-05-04 12:58 | 38.21047 | 12.83892 | 4255 ft | 244 kts | 159° |
| 2026-05-04 12:58 | 38.19515 | 12.84716 | 3855 ft | 236 kts | 159° |
| 2026-05-04 12:58 | 38.18065 | 12.85499 | 3637 ft | 220 kts | 158° |
| 2026-05-04 12:58 | 38.16710 | 12.86231 | 3461 ft | 203 kts | 158° |
| 2026-05-04 12:59 | 38.15458 | 12.86908 | 3245 ft | 190 kts | 159° |
| 2026-05-04 12:59 | 38.14243 | 12.87565 | 2785 ft | 190 kts | 159° |
| 2026-05-04 12:59 | 38.13027 | 12.88221 | 2387 ft | 187 kts | 159° |
| 2026-05-04 12:59 | 38.11941 | 12.89077 | 2307 ft | 189 kts | 135° |
| 2026-05-04 13:00 | 38.11442 | 12.90598 | 2288 ft | 193 kts | 94° |
| 2026-05-04 13:00 | 38.11881 | 12.92209 | 2323 ft | 198 kts | 61° |
| 2026-05-04 13:00 | 38.12532 | 12.93748 | 2296 ft | 198 kts | 70° |
| 2026-05-04 13:00 | 38.12980 | 12.95314 | 2265 ft | 184 kts | 72° |
| 2026-05-04 13:01 | 38.13458 | 12.96820 | 2082 ft | 176 kts | 69° |
| 2026-05-04 13:01 | 38.13934 | 12.98235 | 1847 ft | 175 kts | 69° |
| 2026-05-04 13:01 | 38.14404 | 12.99636 | 1608 ft | 170 kts | 69° |
| 2026-05-04 13:01 | 38.14854 | 13.00978 | 1373 ft | 160 kts | 68° |
| 2026-05-04 13:02 | 38.15282 | 13.02255 | 1171 ft | 154 kts | 68° |
| 2026-05-04 13:02 | 38.15690 | 13.03472 | 983 ft | 145 kts | 67° |
| 2026-05-04 13:02 | 38.16083 | 13.04641 | 804 ft | 142 kts | 66° |
| 2026-05-04 13:02 | 38.16471 | 13.05799 | 579 ft | 143 kts | 66° |
| 2026-05-04 13:03 | 38.16861 | 13.06943 | 382 ft | 140 kts | 65° |
| 2026-05-04 13:03 | 38.17230 | 13.08058 | 221 ft | 139 kts | 66° |
| 2026-05-04 13:03 | 38.17615 | 13.09197 | 52 ft | 140 kts | 66° |
| 2026-05-04 13:03 | 38.17932 | 13.10134 | 52 ft | 85 kts | 67° |
| 2026-05-04 13:04 | 38.18086 | 13.10597 | 52 ft | 43 kts | 67° |
| 2026-05-04 13:04 | 38.18194 | 13.10920 | 50 ft | 37 kts | 67° |
| 2026-05-04 13:04 | 38.18289 | 13.11200 | 52 ft | 33 kts | 67° |
| 2026-05-04 13:04 | 38.18373 | 13.11451 | 52 ft | 30 kts | 67° |
| 2026-05-04 13:05 | 38.18452 | 13.11685 | 48 ft | 28 kts | 67° |
| 2026-05-04 13:05 | 38.18547 | 13.11875 | 51 ft | 22 kts | 17° |
| 2026-05-04 13:05 | 38.18600 | 13.11780 | 52 ft | 15 kts | 277° |
| 2026-05-04 13:05 | 38.18615 | 13.11628 | 52 ft | 21 kts | 276° |
| 2026-05-04 13:06 | 38.18580 | 13.11451 | 52 ft | 21 kts | 247° |
| 2026-05-04 13:06 | 38.18524 | 13.11284 | 52 ft | 20 kts | 247° |
| 2026-05-04 13:06 | 38.18467 | 13.11122 | 51 ft | 20 kts | 247° |
| 2026-05-04 13:06 | 38.18437 | 13.10956 | 49 ft | 20 kts | 308° |
| 2026-05-04 13:07 | 38.18509 | 13.10811 | 52 ft | 20 kts | 329° |
| 2026-05-04 13:07 | 38.18564 | 13.10794 | 52 ft | 7 kts | 18° |
| 2026-05-04 13:07 | 38.18603 | 13.10755 | 52 ft | 8 kts | 300° |
| 2026-05-04 13:07 | 38.18612 | 13.10735 | 52 ft | 0 kts | 300° |